Time;durP1;ratioP1;P1;durP2;ratioP2;P2;SDS_P1;SDS_P2;PMS_P1;PMS_P2;Temp;Humidity;BMP_temperature;BMP_pressure;BME280_temperature;BME280_humidity;BME280_pressure;Samples;Min_cycle;Max_cycle;Signal;HPM_P1;HPM_P2
2022/10/17 00:00:36;;;;;;;8.57;4.27;;;15.20;94.10;;;;;;5032228;28;20311;-72
2022/10/17 00:03:02;;;;;;;5.27;3.17;;;15.10;94.20;;;;;;5032092;28;20189;-73
2022/10/17 00:05:28;;;;;;;8.63;3.70;;;15.10;94.20;;;;;;5031551;28;20191;-71
2022/10/17 00:07:53;;;;;;;9.60;3.40;;;15.20;94.30;;;;;;5025762;28;20210;-70
2022/10/17 00:10:19;;;;;;;9.33;3.80;;;15.10;94.20;;;;;;5031865;28;20795;-71
2022/10/17 00:12:45;;;;;;;4.77;3.13;;;15.10;94.20;;;;;;5029756;28;20433;-71
2022/10/17 00:15:14;;;;;;;5.13;3.20;;;15.10;94.20;;;;;;5030548;28;20272;-71
2022/10/17 00:17:40;;;;;;;6.40;3.93;;;15.10;94.30;;;;;;5026635;28;20224;-70
2022/10/17 00:20:07;;;;;;;7.80;4.43;;;15.00;94.30;;;;;;5031408;28;20799;-71
2022/10/17 00:22:32;;;;;;;9.53;4.30;;;15.00;94.50;;;;;;5030166;28;20420;-70
2022/10/17 00:24:58;;;;;;;7.40;3.80;;;15.00;94.40;;;;;;5028343;28;20434;-71
2022/10/17 00:27:24;;;;;;;6.90;3.53;;;15.00;94.40;;;;;;5028961;28;20221;-70
2022/10/17 00:29:50;;;;;;;22.20;4.30;;;15.00;94.50;;;;;;5027454;28;20185;-70
2022/10/17 00:32:17;;;;;;;8.60;4.30;;;15.00;94.50;;;;;;5031290;28;20187;-71
2022/10/17 00:34:43;;;;;;;6.47;3.80;;;15.00;94.60;;;;;;5025761;28;20456;-71
2022/10/17 00:37:08;;;;;;;7.93;4.40;;;15.00;94.60;;;;;;5020936;28;20483;-70
2022/10/17 00:39:34;;;;;;;9.60;4.10;;;14.90;94.80;;;;;;5031182;28;20653;-71
2022/10/17 00:42:00;;;;;;;7.23;4.40;;;14.80;94.80;;;;;;5031248;28;20205;-70
2022/10/17 00:44:28;;;;;;;8.77;4.40;;;14.80;95.00;;;;;;5030996;28;20676;-70
2022/10/17 00:46:59;;;;;;;4.70;3.13;;;14.70;95.10;;;;;;5026601;28;20780;-70
2022/10/17 00:49:28;;;;;;;8.03;3.40;;;14.70;95.20;;;;;;5031102;28;20916;-70
2022/10/17 00:51:58;;;;;;;7.40;4.20;;;14.70;95.20;;;;;;5031143;28;20435;-70
2022/10/17 00:54:32;;;;;;;5.90;4.13;;;14.70;95.20;;;;;;5030524;28;20464;-69
2022/10/17 00:56:58;;;;;;;10.03;4.43;;;14.70;95.10;;;;;;5021173;28;20462;-70
2022/10/17 00:59:25;;;;;;;6.37;3.87;;;14.70;95.20;;;;;;5027927;28;20427;-71
2022/10/17 01:02:02;;;;;;;7.70;3.70;;;14.60;95.20;;;;;;5030189;28;20431;-69
2022/10/17 01:04:28;;;;;;;6.90;4.37;;;14.70;95.20;;;;;;5026743;28;20412;-70
2022/10/17 01:06:53;;;;;;;6.30;4.17;;;14.60;95.20;;;;;;5024113;28;20475;-70
2022/10/17 01:09:19;;;;;;;5.80;4.00;;;14.60;95.20;;;;;;5030708;28;20186;-71
2022/10/17 01:12:13;;;;;;;10.63;4.43;;;14.60;95.10;;;;;;5025377;28;20323;-71
2022/10/17 01:14:49;;;;;;;6.90;3.83;;;14.50;95.30;;;;;;5009546;28;20227;-71
2022/10/17 01:17:35;;;;;;;5.67;4.00;;;14.60;95.30;;;;;;5026199;28;20470;-69
2022/10/17 01:20:19;;;;;;;7.40;4.30;;;14.60;95.20;;;;;;5028430;28;20527;-70
2022/10/17 01:22:57;;;;;;;13.17;3.73;;;14.50;95.00;;;;;;5027603;28;20821;-70
2022/10/17 01:25:49;;;;;;;7.60;3.93;;;14.50;95.00;;;;;;5030075;28;20423;-69
2022/10/17 01:28:59;;;;;;;9.27;4.60;;;14.50;95.10;;;;;;5024609;28;20886;-71
2022/10/17 01:31:38;;;;;;;7.47;4.20;;;14.40;95.10;;;;;;5029580;28;20916;-70
2022/10/17 01:34:14;;;;;;;6.93;3.27;;;14.50;95.30;;;;;;5030658;28;20424;-70
2022/10/17 01:36:49;;;;;;;8.40;3.70;;;14.40;95.40;;;;;;5020761;28;20535;-70
2022/10/17 01:39:28;;;;;;;7.77;3.70;;;14.40;95.40;;;;;;5033672;28;20420;-71
2022/10/17 01:42:15;;;;;;;5.17;3.23;;;14.40;95.40;;;;;;5031213;28;20850;-70
2022/10/17 01:45:07;;;;;;;8.53;4.13;;;14.40;95.40;;;;;;5028970;28;20428;-70
2022/10/17 01:47:33;;;;;;;6.40;4.17;;;14.50;95.10;;;;;;5018487;28;20488;-70
2022/10/17 01:50:25;;;;;;;7.00;4.20;;;14.40;95.00;;;;;;5028267;28;20460;-71
2022/10/17 01:52:55;;;;;;;6.87;3.70;;;14.30;95.00;;;;;;5020920;28;20441;-70
2022/10/17 01:55:48;;;;;;;7.13;3.57;;;14.30;95.10;;;;;;5027383;28;20868;-71
2022/10/17 01:58:21;;;;;;;5.33;3.47;;;14.30;95.00;;;;;;5022515;28;20441;-71
2022/10/17 02:00:48;;;;;;;6.00;3.20;;;14.30;95.00;;;;;;5029245;28;20428;-70
2022/10/17 02:03:18;;;;;;;15.13;4.10;;;14.20;95.10;;;;;;5023457;28;21036;-71
2022/10/17 02:05:44;;;;;;;9.20;4.20;;;14.30;95.20;;;;;;5028373;28;20424;-70
2022/10/17 02:08:11;;;;;;;7.80;4.00;;;14.20;95.30;;;;;;5021899;28;21066;-71
2022/10/17 02:10:48;;;;;;;4.90;3.33;;;14.20;95.30;;;;;;5027658;28;20932;-70
2022/10/17 02:13:31;;;;;;;7.50;3.57;;;14.20;95.40;;;;;;5026529;28;20409;-71
2022/10/17 02:16:16;;;;;;;5.70;3.40;;;14.20;95.40;;;;;;5025204;28;20511;-70
2022/10/17 02:18:47;;;;;;;8.50;3.20;;;14.30;95.20;;;;;;5044160;28;20442;-70
2022/10/17 02:21:23;;;;;;;7.90;3.27;;;14.30;95.10;;;;;;5029184;28;20936;-71
2022/10/17 02:24:17;;;;;;;9.40;3.87;;;14.40;95.10;;;;;;5025143;28;20867;-72
2022/10/17 02:26:52;;;;;;;7.20;3.87;;;14.30;94.80;;;;;;5026725;28;20480;-71
2022/10/17 02:29:32;;;;;;;7.47;3.57;;;14.40;94.70;;;;;;5024504;28;20439;-71
2022/10/17 02:32:03;;;;;;;6.80;3.60;;;14.40;94.50;;;;;;5024031;28;20462;-72
2022/10/17 02:34:41;;;;;;;5.23;3.43;;;14.20;94.50;;;;;;5028541;28;20412;-72
2022/10/17 02:37:10;;;;;;;7.43;4.20;;;14.20;94.80;;;;;;5023948;28;20490;-72
2022/10/17 02:39:38;;;;;;;13.47;4.47;;;14.10;95.00;;;;;;5027874;28;20511;-71
2022/10/17 02:42:07;;;;;;;9.73;3.60;;;14.10;95.20;;;;;;5028454;28;20455;-71
2022/10/17 02:44:34;;;;;;;5.00;3.67;;;14.10;95.20;;;;;;5027863;28;20435;-70
2022/10/17 02:47:11;;;;;;;6.57;3.60;;;14.10;95.20;;;;;;5024460;28;20479;-71
2022/10/17 02:49:42;;;;;;;8.30;3.50;;;14.20;95.10;;;;;;5028343;28;20415;-71
2022/10/17 02:52:33;;;;;;;6.90;3.60;;;14.20;94.80;;;;;;5032068;28;20942;-71
2022/10/17 02:55:02;;;;;;;21.23;4.10;;;14.00;94.90;;;;;;5020986;28;20415;-71
2022/10/17 02:57:37;;;;;;;7.53;3.87;;;14.10;95.10;;;;;;5029032;28;20535;-71
2022/10/17 03:00:07;;;;;;;6.50;3.83;;;14.10;95.20;;;;;;5028327;28;20763;-71
2022/10/17 03:02:41;;;;;;;7.03;3.43;;;14.10;95.20;;;;;;5031788;28;20438;-70
2022/10/17 03:05:09;;;;;;;6.80;3.50;;;14.20;95.30;;;;;;5031607;28;20415;-70
2022/10/17 03:07:34;;;;;;;5.57;3.60;;;14.10;95.20;;;;;;5027063;28;20835;-70
2022/10/17 03:10:00;;;;;;;7.50;4.03;;;14.10;95.10;;;;;;5030614;28;20428;-70
2022/10/17 03:12:25;;;;;;;4.90;3.23;;;14.10;95.00;;;;;;5030239;28;20719;-69
2022/10/17 03:14:51;;;;;;;6.63;3.23;;;14.10;95.10;;;;;;5029953;28;20197;-68
2022/10/17 03:17:17;;;;;;;5.13;3.60;;;14.20;95.10;;;;;;5031025;28;20228;-71
2022/10/17 03:19:42;;;;;;;6.23;3.33;;;14.20;95.00;;;;;;5042450;28;20185;-70
2022/10/17 03:22:08;;;;;;;6.13;3.50;;;14.20;95.00;;;;;;5042327;28;20221;-69
2022/10/17 03:24:33;;;;;;;23.17;4.20;;;14.10;95.00;;;;;;5038065;28;20543;-69
2022/10/17 03:26:59;;;;;;;12.70;3.93;;;14.20;95.10;;;;;;5029780;28;20283;-70
2022/10/17 03:29:24;;;;;;;10.10;3.63;;;14.20;95.00;;;;;;5028348;28;20185;-72
2022/10/17 03:31:50;;;;;;;4.97;2.80;;;14.10;94.80;;;;;;5029278;28;20654;-71
2022/10/17 03:34:17;;;;;;;5.00;3.77;;;14.10;94.80;;;;;;5027992;28;20697;-70
2022/10/17 03:36:43;;;;;;;7.80;3.70;;;14.10;94.70;;;;;;5027448;28;20216;-71
2022/10/17 03:39:09;;;;;;;11.00;4.00;;;14.10;94.60;;;;;;5030043;28;20759;-72
2022/10/17 03:41:34;;;;;;;6.97;3.43;;;14.10;94.80;;;;;;5031034;28;20448;-72
2022/10/17 03:44:00;;;;;;;7.77;3.60;;;14.10;94.80;;;;;;5029183;28;20189;-70
2022/10/17 03:46:25;;;;;;;9.23;3.70;;;14.10;94.90;;;;;;5026408;28;20374;-71
2022/10/17 03:48:51;;;;;;;7.70;3.77;;;14.10;94.80;;;;;;5030054;28;20177;-71
2022/10/17 03:51:17;;;;;;;6.73;3.73;;;14.00;94.80;;;;;;5032510;28;20197;-71
2022/10/17 03:53:42;;;;;;;6.40;3.77;;;14.10;94.60;;;;;;5035824;28;20215;-71
2022/10/17 03:56:21;;;;;;;5.70;3.33;;;14.00;94.40;;;;;;5027770;28;20248;-70
2022/10/17 03:58:47;;;;;;;10.30;3.80;;;14.00;94.50;;;;;;5031077;28;20691;-71
2022/10/17 04:01:15;;;;;;;6.50;3.70;;;14.00;94.50;;;;;;5031457;28;20419;-71
2022/10/17 04:03:41;;;;;;;7.23;3.70;;;13.90;94.60;;;;;;5029935;28;20958;-72
2022/10/17 04:06:09;;;;;;;9.33;3.50;;;13.90;94.60;;;;;;5026896;28;20519;-71
2022/10/17 04:08:35;;;;;;;7.33;3.77;;;14.00;94.50;;;;;;5029064;28;20472;-69
2022/10/17 04:11:03;;;;;;;7.07;4.10;;;14.00;94.20;;;;;;5031608;28;20478;-70
2022/10/17 04:13:29;;;;;;;7.40;3.60;;;13.90;94.30;;;;;;5029341;28;20219;-72
2022/10/17 04:16:00;;;;;;;5.87;4.07;;;13.90;94.30;;;;;;5027433;28;20420;-70
2022/10/17 04:18:26;;;;;;;6.70;3.90;;;14.00;94.30;;;;;;5026958;28;20420;-70
2022/10/17 04:20:51;;;;;;;9.00;4.73;;;13.90;94.20;;;;;;5031014;28;20462;-71
2022/10/17 04:23:17;;;;;;;7.67;4.17;;;13.90;94.10;;;;;;5028593;28;20182;-71
2022/10/17 04:25:42;;;;;;;8.70;4.20;;;13.90;94.10;;;;;;5029685;28;20185;-70
2022/10/17 04:28:08;;;;;;;5.33;3.43;;;13.80;94.20;;;;;;5028590;28;20213;-71
2022/10/17 04:30:34;;;;;;;11.87;3.90;;;13.80;94.30;;;;;;5030832;28;20208;-70
2022/10/17 04:32:59;;;;;;;9.47;4.00;;;13.80;94.40;;;;;;5031136;28;20238;-71
2022/10/17 04:35:25;;;;;;;5.97;3.70;;;13.80;94.30;;;;;;5030758;28;20185;-71
2022/10/17 04:37:50;;;;;;;10.47;4.10;;;13.80;94.20;;;;;;5026992;28;20677;-72
2022/10/17 04:40:16;;;;;;;19.80;4.90;;;13.80;94.20;;;;;;5031978;28;20676;-72
2022/10/17 04:42:41;;;;;;;5.70;3.90;;;13.80;94.20;;;;;;5031272;28;20217;-72
2022/10/17 04:45:07;;;;;;;7.10;3.90;;;13.80;94.30;;;;;;5031169;28;20223;-70
2022/10/17 04:47:33;;;;;;;14.77;4.40;;;13.80;94.50;;;;;;5028302;28;20209;-71
2022/10/17 04:49:58;;;;;;;11.20;3.73;;;13.90;94.50;;;;;;5032035;28;20962;-71
2022/10/17 04:52:24;;;;;;;6.73;4.07;;;13.90;94.50;;;;;;5031346;28;20181;-71
2022/10/17 04:54:50;;;;;;;6.30;3.80;;;13.90;94.60;;;;;;5031719;28;20199;-71
2022/10/17 04:57:17;;;;;;;7.57;4.17;;;13.90;94.60;;;;;;5032482;28;20213;-72
2022/10/17 04:59:43;;;;;;;7.63;4.13;;;13.90;94.70;;;;;;5033063;28;20220;-72
2022/10/17 05:02:08;;;;;;;6.40;3.63;;;14.00;94.70;;;;;;5030906;28;20428;-72
2022/10/17 05:04:34;;;;;;;6.30;3.50;;;14.00;94.60;;;;;;5034502;28;20200;-71
2022/10/17 05:06:59;;;;;;;5.50;3.77;;;14.00;94.50;;;;;;5039887;28;20782;-71
2022/10/17 05:09:26;;;;;;;9.37;4.37;;;14.00;94.50;;;;;;5047908;28;20181;-71
2022/10/17 05:11:52;;;;;;;7.63;4.07;;;14.00;94.50;;;;;;5043425;28;20185;-73
2022/10/17 05:14:17;;;;;;;6.97;4.00;;;14.00;94.40;;;;;;5039239;28;20423;-72
2022/10/17 05:16:43;;;;;;;6.40;4.10;;;14.00;94.40;;;;;;5038545;28;20284;-72
2022/10/17 05:19:10;;;;;;;10.63;4.07;;;14.00;94.20;;;;;;5041530;28;20189;-71
2022/10/17 05:21:36;;;;;;;8.50;4.30;;;14.00;94.20;;;;;;5041666;28;20181;-72
2022/10/17 05:24:08;;;;;;;5.97;3.90;;;14.00;94.20;;;;;;5036477;28;20427;-71
2022/10/17 05:26:34;;;;;;;9.27;4.30;;;14.10;94.00;;;;;;5029466;28;20487;-72
2022/10/17 05:29:01;;;;;;;8.87;4.23;;;14.00;93.90;;;;;;5039615;28;20434;-71
2022/10/17 05:31:28;;;;;;;10.30;4.73;;;14.00;94.10;;;;;;5027358;28;20425;-70
2022/10/17 05:33:54;;;;;;;6.07;4.50;;;14.00;94.10;;;;;;5018354;28;20771;-72
2022/10/17 05:36:19;;;;;;;8.53;4.33;;;14.00;94.20;;;;;;5026508;28;21007;-70
2022/10/17 05:38:50;;;;;;;9.87;3.90;;;14.10;94.10;;;;;;5026209;28;20187;-72
2022/10/17 05:41:16;;;;;;;6.33;4.47;;;14.10;93.80;;;;;;5031881;28;20221;-71
2022/10/17 05:43:42;;;;;;;9.43;3.90;;;14.10;93.60;;;;;;5032723;28;21006;-72
2022/10/17 05:46:09;;;;;;;8.90;4.50;;;14.10;93.60;;;;;;5024698;28;20451;-71
2022/10/17 05:48:34;;;;;;;7.93;3.97;;;14.00;93.60;;;;;;5028286;28;20550;-70
2022/10/17 05:51:03;;;;;;;9.67;4.17;;;14.00;93.70;;;;;;5026963;28;20431;-72
2022/10/17 05:53:33;;;;;;;5.43;3.93;;;14.00;93.60;;;;;;5027565;28;20178;-72
2022/10/17 05:56:01;;;;;;;9.00;4.70;;;14.00;93.80;;;;;;5027473;28;20421;-72
2022/10/17 05:58:27;;;;;;;9.13;4.27;;;14.00;93.80;;;;;;5025533;28;20412;-74
2022/10/17 06:01:01;;;;;;;9.33;4.77;;;14.00;94.00;;;;;;5028734;28;20813;-74
2022/10/17 06:03:26;;;;;;;8.00;4.20;;;14.10;94.00;;;;;;5025810;28;20427;-73
2022/10/17 06:05:53;;;;;;;8.43;4.53;;;14.10;94.10;;;;;;5028320;28;20423;-72
2022/10/17 06:08:18;;;;;;;7.80;4.93;;;14.10;94.00;;;;;;5027099;28;20252;-74
2022/10/17 06:10:48;;;;;;;6.47;3.97;;;14.10;93.90;;;;;;5029690;28;20497;-72
2022/10/17 06:13:14;;;;;;;7.63;4.33;;;14.10;93.80;;;;;;5030659;28;20268;-72
2022/10/17 06:15:40;;;;;;;8.20;4.10;;;14.10;93.50;;;;;;5032769;28;20424;-74
2022/10/17 06:18:05;;;;;;;12.10;5.30;;;14.10;93.30;;;;;;5033941;28;20465;-72
2022/10/17 06:20:31;;;;;;;9.27;5.47;;;14.10;93.30;;;;;;5040248;28;20245;-72
2022/10/17 06:22:56;;;;;;;6.33;4.53;;;14.10;93.60;;;;;;5038836;28;20646;-72
2022/10/17 06:25:22;;;;;;;8.73;5.50;;;14.00;94.00;;;;;;5042661;28;20514;-73
2022/10/17 06:27:47;;;;;;;9.10;5.47;;;14.10;94.10;;;;;;5047391;28;20220;-73
2022/10/17 06:30:13;;;;;;;8.47;4.97;;;14.10;94.10;;;;;;5049751;28;20178;-71
2022/10/17 06:32:38;;;;;;;8.33;4.90;;;14.20;94.00;;;;;;5048324;28;20201;-72
2022/10/17 06:35:04;;;;;;;7.50;4.80;;;14.20;93.80;;;;;;5046864;28;20181;-73
2022/10/17 06:37:32;;;;;;;8.90;5.10;;;14.30;93.60;;;;;;5040925;28;20779;-71
2022/10/17 06:39:57;;;;;;;8.63;4.50;;;14.20;93.50;;;;;;5041817;28;20442;-72
2022/10/17 06:42:23;;;;;;;13.50;5.20;;;14.20;93.60;;;;;;5041531;28;20459;-71
2022/10/17 06:44:49;;;;;;;8.17;5.53;;;14.20;93.30;;;;;;5041634;28;21151;-73
2022/10/17 06:47:14;;;;;;;8.63;4.60;;;14.30;93.20;;;;;;5032030;28;20260;-74
2022/10/17 06:49:40;;;;;;;7.57;4.40;;;14.30;93.10;;;;;;5038967;28;20181;-73
2022/10/17 06:52:06;;;;;;;16.87;5.00;;;14.30;93.20;;;;;;5038245;28;20202;-72
2022/10/17 06:54:31;;;;;;;14.80;7.80;;;14.30;93.10;;;;;;5031397;28;20622;-71
2022/10/17 06:56:57;;;;;;;10.50;6.50;;;14.30;93.20;;;;;;5030529;28;20235;-72
2022/10/17 06:59:22;;;;;;;12.67;6.30;;;14.20;93.40;;;;;;5033293;28;20236;-71
2022/10/17 07:01:48;;;;;;;9.67;5.20;;;14.30;93.50;;;;;;5030859;28;20231;-72
2022/10/17 07:04:13;;;;;;;9.60;4.80;;;14.30;93.50;;;;;;5033036;28;20666;-70
2022/10/17 07:06:39;;;;;;;11.33;5.00;;;14.40;93.20;;;;;;5030533;28;20209;-71
2022/10/17 07:09:05;;;;;;;5.67;4.07;;;14.50;92.90;;;;;;5031944;28;20663;-70
2022/10/17 07:11:33;;;;;;;8.30;4.73;;;14.50;92.80;;;;;;5034251;28;20430;-71
2022/10/17 07:13:59;;;;;;;8.70;4.63;;;14.60;92.50;;;;;;5035642;28;20424;-72
2022/10/17 07:16:24;;;;;;;9.53;5.60;;;14.60;92.40;;;;;;5033884;28;20517;-70
2022/10/17 07:18:51;;;;;;;8.50;4.10;;;14.70;92.20;;;;;;5032371;28;20299;-72
2022/10/17 07:21:17;;;;;;;7.27;4.57;;;14.80;92.10;;;;;;5032867;28;20188;-71
2022/10/17 07:23:43;;;;;;;10.67;6.23;;;14.90;91.80;;;;;;5030351;28;20451;-71
2022/10/17 07:26:12;;;;;;;9.33;4.33;;;15.00;91.50;;;;;;5030284;28;20902;-71
2022/10/17 07:28:39;;;;;;;13.83;5.10;;;15.10;91.10;;;;;;5029224;28;20248;-71
2022/10/17 07:31:07;;;;;;;9.00;4.90;;;15.20;90.70;;;;;;5030333;28;20428;-72
2022/10/17 07:33:33;;;;;;;15.57;5.03;;;15.30;90.60;;;;;;5027602;28;20507;-72
2022/10/17 07:36:00;;;;;;;9.90;4.80;;;15.40;90.40;;;;;;5024237;28;20904;-72
2022/10/17 07:38:26;;;;;;;13.93;5.53;;;15.40;90.30;;;;;;5031310;28;20983;-70
2022/10/17 07:40:56;;;;;;;8.20;4.23;;;15.50;90.60;;;;;;5025224;28;20437;-73
2022/10/17 07:43:23;;;;;;;9.40;4.80;;;15.60;90.50;;;;;;5029040;28;20477;-72
2022/10/17 07:45:49;;;;;;;10.63;5.40;;;15.70;90.40;;;;;;5026181;28;20506;-72
2022/10/17 07:48:14;;;;;;;6.17;4.90;;;15.70;90.30;;;;;;5028213;28;20566;-71
2022/10/17 07:50:40;;;;;;;9.77;5.73;;;15.90;90.20;;;;;;5027083;28;20659;-70
2022/10/17 07:53:06;;;;;;;9.73;4.87;;;16.00;90.00;;;;;;5032189;28;20201;-71
2022/10/17 07:55:31;;;;;;;9.47;5.13;;;16.10;89.70;;;;;;5032063;28;20256;-72
2022/10/17 07:57:59;;;;;;;7.97;5.07;;;16.20;89.30;;;;;;5027264;28;20742;-71
2022/10/17 08:00:25;;;;;;;9.37;4.70;;;16.20;89.20;;;;;;5031573;28;20192;-70
2022/10/17 08:02:50;;;;;;;8.80;4.73;;;16.30;89.20;;;;;;5031771;28;20475;-71
2022/10/17 08:05:16;;;;;;;9.47;4.50;;;16.40;89.00;;;;;;5030081;28;20426;-71
2022/10/17 08:07:41;;;;;;;6.30;4.73;;;16.50;88.30;;;;;;5028698;28;20231;-73
2022/10/17 08:10:07;;;;;;;8.57;4.60;;;16.60;88.00;;;;;;5032201;28;20185;-71
2022/10/17 08:12:34;;;;;;;7.20;4.90;;;16.70;87.60;;;;;;5031694;28;20277;-72
2022/10/17 08:15:00;;;;;;;7.50;4.50;;;16.70;87.10;;;;;;5027097;28;21423;-70
2022/10/17 08:17:26;;;;;;;9.27;4.20;;;16.80;86.90;;;;;;5030346;28;20475;-71
2022/10/17 08:19:51;;;;;;;6.70;4.10;;;16.90;86.80;;;;;;5031579;28;20435;-71
2022/10/17 08:22:17;;;;;;;6.63;4.53;;;17.00;86.20;;;;;;5032833;28;20180;-71
2022/10/17 08:24:44;;;;;;;7.20;4.10;;;17.10;86.00;;;;;;5032020;28;20220;-72
2022/10/17 08:27:12;;;;;;;10.33;4.70;;;17.20;85.70;;;;;;5032484;28;20291;-72
2022/10/17 08:29:38;;;;;;;11.43;4.33;;;17.30;85.30;;;;;;5031427;28;20916;-70
2022/10/17 08:32:05;;;;;;;7.83;4.50;;;17.40;85.30;;;;;;5032166;28;20494;-70
2022/10/17 08:34:31;;;;;;;7.10;4.30;;;17.50;84.70;;;;;;5033763;28;20419;-70
2022/10/17 08:36:56;;;;;;;10.17;5.73;;;17.50;84.70;;;;;;5033434;28;20451;-71
2022/10/17 08:39:22;;;;;;;14.70;5.20;;;17.50;84.30;;;;;;5037080;28;20190;-71
2022/10/17 08:42:06;;;;;;;12.70;5.43;;;17.50;83.80;;;;;;5031525;28;20302;-70
2022/10/17 08:45:03;;;;;;;7.30;4.60;;;17.60;83.70;;;;;;5029190;28;20212;-71
2022/10/17 08:47:39;;;;;;;14.00;6.27;;;17.90;83.40;;;;;;5025053;28;20485;-70
2022/10/17 08:50:11;;;;;;;10.87;5.87;;;17.90;83.00;;;;;;5029615;28;20438;-70
2022/10/17 08:52:37;;;;;;;13.17;6.80;;;18.00;83.30;;;;;;5028832;28;20425;-70
2022/10/17 08:55:12;;;;;;;11.03;6.30;;;18.10;83.30;;;;;;5029862;28;20423;-71
2022/10/17 08:57:37;;;;;;;11.60;5.43;;;18.10;82.80;;;;;;5023170;28;20208;-71
2022/10/17 09:00:12;;;;;;;9.73;5.50;;;18.20;83.10;;;;;;5029288;28;20957;-70
2022/10/17 09:02:53;;;;;;;12.60;5.73;;;18.30;83.10;;;;;;5027217;28;20275;-72
2022/10/17 09:05:49;;;;;;;18.33;6.37;;;18.50;82.70;;;;;;5028534;28;20818;-70
2022/10/17 09:08:23;;;;;;;8.60;5.27;;;18.60;81.80;;;;;;5023468;28;20475;-71
2022/10/17 09:11:18;;;;;;;20.60;7.60;;;18.70;81.40;;;;;;5021602;28;20429;-69
2022/10/17 09:13:52;;;;;;;11.17;5.80;;;18.70;80.80;;;;;;4992111;28;20452;-71
2022/10/17 09:16:22;;;;;;;10.07;5.90;;;18.70;80.60;;;;;;5023007;28;20540;-71
2022/10/17 09:19:06;;;;;;;10.80;5.47;;;18.70;80.60;;;;;;5026078;28;20446;-71
2022/10/17 09:21:38;;;;;;;12.93;6.37;;;18.80;80.60;;;;;;5030506;28;20434;-72
2022/10/17 09:24:10;;;;;;;8.83;5.63;;;19.00;79.90;;;;;;5030759;28;20761;-70
2022/10/17 09:26:39;;;;;;;13.63;6.20;;;19.20;79.50;;;;;;5026970;28;20478;-71
2022/10/17 09:29:14;;;;;;;13.03;6.40;;;19.30;78.70;;;;;;5029803;28;20414;-71
2022/10/17 09:31:46;;;;;;;13.47;5.60;;;19.30;78.00;;;;;;5027010;28;20933;-71
2022/10/17 09:34:11;;;;;;;14.20;6.20;;;19.40;78.40;;;;;;5028892;28;20416;-71
2022/10/17 09:36:39;;;;;;;12.47;6.27;;;19.60;78.10;;;;;;5029335;28;20517;-71
2022/10/17 09:39:04;;;;;;;13.13;5.43;;;19.70;78.40;;;;;;5033110;28;20188;-72
2022/10/17 09:41:36;;;;;;;13.73;6.33;;;19.80;78.40;;;;;;5033908;28;20428;-71
2022/10/17 09:44:22;;;;;;;11.07;5.63;;;20.00;78.00;;;;;;5029913;28;20240;-72
2022/10/17 09:46:56;;;;;;;9.33;5.13;;;20.10;77.00;;;;;;5030058;28;20502;-69
2022/10/17 09:49:31;;;;;;;13.53;5.80;;;20.10;77.10;;;;;;5034302;28;20416;-71
2022/10/17 09:51:57;;;;;;;12.57;5.37;;;20.30;77.10;;;;;;5029481;28;20404;-71
2022/10/17 09:54:49;;;;;;;8.93;4.60;;;20.40;76.10;;;;;;5034509;28;20425;-73
2022/10/17 09:57:17;;;;;;;18.80;6.10;;;20.60;76.40;;;;;;5026869;28;20356;-72
2022/10/17 09:59:55;;;;;;;25.97;7.10;;;20.60;75.70;;;;;;5034540;28;20998;-71
2022/10/17 10:02:23;;;;;;;18.37;5.47;;;20.70;75.90;;;;;;5034610;28;20445;-72
2022/10/17 10:04:52;;;;;;;12.57;5.90;;;20.80;75.10;;;;;;5029604;28;20417;-71
2022/10/17 10:07:19;;;;;;;11.10;3.27;;;21.00;75.10;;;;;;5030651;28;20485;-72
2022/10/17 10:09:47;;;;;;;10.30;5.90;;;21.10;71.10;;;;;;5034715;28;20421;-71
2022/10/17 10:12:29;;;;;;;6.63;3.50;;;21.40;68.60;;;;;;5034324;28;20956;-71
2022/10/17 10:14:55;;;;;;;6.53;3.40;;;21.70;68.00;;;;;;5032514;28;20422;-72
2022/10/17 10:17:27;;;;;;;6.20;3.80;;;21.90;67.30;;;;;;5031832;28;20468;-71
2022/10/17 10:19:53;;;;;;;4.30;3.13;;;22.20;66.00;;;;;;5034586;28;20653;-70
2022/10/17 10:22:22;;;;;;;3.80;2.97;;;22.50;65.40;;;;;;5032940;28;21329;-71
2022/10/17 10:25:15;;;;;;;4.30;3.33;;;22.80;65.10;;;;;;5034361;28;20202;-71
2022/10/17 10:27:43;;;;;;;7.03;3.33;;;23.20;64.40;;;;;;5028586;28;20516;-71
2022/10/17 10:30:18;;;;;;;5.80;2.80;;;23.50;64.40;;;;;;5033901;28;20616;-71
2022/10/17 10:32:47;;;;;;;4.90;3.13;;;23.70;63.90;;;;;;5033223;28;20795;-71
2022/10/17 10:35:25;;;;;;;7.90;3.00;;;23.90;63.40;;;;;;5034325;28;20466;-71
2022/10/17 10:37:53;;;;;;;5.63;3.30;;;24.20;62.00;;;;;;5029007;28;20460;-71
2022/10/17 10:40:50;;;;;;;6.37;3.60;;;24.30;60.90;;;;;;5033086;28;20434;-70
2022/10/17 10:43:28;;;;;;;17.50;3.27;;;24.50;60.00;;;;;;5028319;28;20514;-70
2022/10/17 10:45:54;;;;;;;6.10;3.20;;;24.80;59.70;;;;;;5028515;28;20432;-72
2022/10/17 10:48:21;;;;;;;5.63;2.73;;;24.80;58.50;;;;;;5029257;28;20496;-70
2022/10/17 10:50:58;;;;;;;7.37;2.77;;;24.90;58.20;;;;;;5031754;28;20243;-70
2022/10/17 10:53:34;;;;;;;3.20;2.73;;;25.10;58.50;;;;;;5031051;28;20425;-71
2022/10/17 10:56:15;;;;;;;3.80;2.80;;;25.20;58.10;;;;;;5028682;28;20436;-71
2022/10/17 10:59:09;;;;;;;4.20;2.63;;;25.40;58.70;;;;;;5028298;28;20549;-71
2022/10/17 11:01:49;;;;;;;4.60;2.57;;;25.60;57.00;;;;;;5031345;28;20441;-70
2022/10/17 11:04:42;;;;;;;7.87;2.90;;;25.70;56.00;;;;;;5037847;28;20945;-71
2022/10/17 11:07:35;;;;;;;2.70;2.40;;;25.70;56.00;;;;;;5028003;28;20870;-70
2022/10/17 11:10:13;;;;;;;3.77;2.60;;;25.90;55.80;;;;;;5029108;28;20909;-71
2022/10/17 11:12:43;;;;;;;4.80;2.90;;;25.90;56.20;;;;;;5031380;28;20421;-70
2022/10/17 11:15:28;;;;;;;7.40;2.93;;;25.90;55.40;;;;;;5028969;28;20514;-69
2022/10/17 11:17:54;;;;;;;8.10;3.67;;;25.90;55.30;;;;;;5025190;28;20467;-70
2022/10/17 11:20:30;;;;;;;4.07;2.77;;;26.00;54.10;;;;;;5028072;28;21241;-71
2022/10/17 11:23:20;;;;;;;3.37;2.60;;;26.00;54.50;;;;;;5027877;28;20488;-70
2022/10/17 11:25:49;;;;;;;4.30;2.57;;;26.20;52.90;;;;;;5032325;28;20981;-69
2022/10/17 11:28:17;;;;;;;4.00;2.73;;;26.40;52.50;;;;;;5027031;28;20485;-71
2022/10/17 11:30:45;;;;;;;4.67;2.53;;;26.50;51.30;;;;;;5033067;28;20437;-71
2022/10/17 11:33:18;;;;;;;5.50;2.67;;;26.70;50.20;;;;;;5031946;28;20448;-71
2022/10/17 11:35:48;;;;;;;4.60;2.80;;;26.60;50.50;;;;;;5032492;28;20434;-70
2022/10/17 11:38:20;;;;;;;4.60;2.43;;;26.80;50.60;;;;;;5028785;28;20451;-71
2022/10/17 11:40:51;;;;;;;5.40;2.90;;;27.00;50.20;;;;;;5031556;28;20431;-71
2022/10/17 11:43:24;;;;;;;4.00;2.77;;;27.40;49.10;;;;;;5029236;28;20497;-71
2022/10/17 11:45:55;;;;;;;6.30;2.10;;;27.70;47.40;;;;;;5032187;28;20439;-72
2022/10/17 11:48:23;;;;;;;4.57;2.40;;;28.00;47.40;;;;;;5028022;28;20472;-71
2022/10/17 11:51:03;;;;;;;5.17;2.43;;;28.20;44.90;;;;;;5040184;28;20428;-71
2022/10/17 11:53:36;;;;;;;7.23;3.10;;;28.10;44.70;;;;;;5029580;28;20948;-71
2022/10/17 11:56:01;;;;;;;7.17;3.37;;;27.70;44.70;;;;;;5027218;28;20454;-72
2022/10/17 11:58:30;;;;;;;5.23;2.60;;;27.20;45.90;;;;;;5028324;28;20471;-71
2022/10/17 12:01:03;;;;;;;7.10;2.17;;;27.00;46.70;;;;;;5032112;28;20198;-71
2022/10/17 12:03:52;;;;;;;8.30;2.40;;;26.90;47.10;;;;;;5031524;28;20526;-71
2022/10/17 12:06:29;;;;;;;7.93;2.63;;;26.80;47.40;;;;;;4996114;28;20867;-70
2022/10/17 12:09:10;;;;;;;12.97;3.00;;;26.90;47.40;;;;;;5025552;28;20961;-72
2022/10/17 12:11:59;;;;;;;7.47;3.13;;;26.70;47.90;;;;;;5030997;28;20419;-72
2022/10/17 12:14:45;;;;;;;3.20;2.40;;;26.80;47.50;;;;;;5030650;28;20445;-71
2022/10/17 12:17:22;;;;;;;6.67;2.33;;;26.80;48.10;;;;;;5029385;28;20469;-70
2022/10/17 12:19:48;;;;;;;7.20;2.33;;;26.90;48.20;;;;;;5038052;28;20468;-71
2022/10/17 12:22:24;;;;;;;10.83;3.00;;;26.90;47.80;;;;;;5037732;28;20913;-70
2022/10/17 12:25:28;;;;;;;4.80;2.37;;;26.80;48.20;;;;;;5033259;28;20430;-70
2022/10/17 12:28:06;;;;;;;6.40;2.60;;;27.00;48.30;;;;;;5033026;28;20512;-72
2022/10/17 12:30:32;;;;;;;5.97;2.07;;;27.20;46.90;;;;;;5034587;28;20424;-71
2022/10/17 12:33:17;;;;;;;6.93;2.80;;;27.10;46.90;;;;;;5028857;28;20546;-70
2022/10/17 12:35:43;;;;;;;7.70;2.70;;;27.10;47.10;;;;;;5030690;28;20487;-73
2022/10/17 12:38:22;;;;;;;3.00;2.40;;;27.30;46.70;;;;;;5023893;28;20886;-71
2022/10/17 12:40:49;;;;;;;4.10;2.30;;;27.30;46.90;;;;;;5030029;28;20185;-72
2022/10/17 12:43:15;;;;;;;5.23;2.30;;;27.20;46.90;;;;;;5030660;28;20508;-71
2022/10/17 12:45:48;;;;;;;5.37;2.37;;;27.20;47.30;;;;;;5026159;28;20844;-71
2022/10/17 12:48:33;;;;;;;3.40;2.53;;;27.30;47.50;;;;;;5026169;28;20209;-70
2022/10/17 12:51:01;;;;;;;4.23;2.27;;;27.40;47.40;;;;;;5028281;28;20904;-71
2022/10/17 12:53:39;;;;;;;5.00;2.37;;;27.50;47.40;;;;;;5027322;28;20488;-70
2022/10/17 12:56:05;;;;;;;4.10;2.20;;;27.50;47.40;;;;;;5022765;28;20412;-71
2022/10/17 12:58:31;;;;;;;3.57;2.40;;;27.50;47.30;;;;;;5023397;28;20802;-70
2022/10/17 13:00:57;;;;;;;4.67;2.30;;;27.60;47.40;;;;;;5027491;28;20432;-70
2022/10/17 13:03:27;;;;;;;6.50;2.10;;;27.70;46.70;;;;;;5027976;28;20174;-70